createdAt,value
2019-03-31T00:00:06.852Z,70.94
2019-03-31T00:02:36.032Z,71.02
2019-03-31T00:05:05.568Z,71.28
2019-03-31T00:07:34.747Z,71.28
2019-03-31T00:10:06.676Z,72.02
2019-03-31T00:12:35.957Z,72.02
2019-03-31T00:15:07.087Z,73.00
2019-03-31T00:17:36.265Z,73.02
2019-03-31T00:20:07.194Z,73.02
2019-03-31T00:22:36.387Z,74.05
2019-03-31T00:25:06.438Z,74.18
2019-03-31T00:27:35.631Z,73.95
2019-03-31T00:30:06.032Z,74.32
2019-03-31T00:32:35.264Z,74.32
2019-03-31T00:35:04.972Z,74.49
2019-03-31T00:37:34.181Z,74.23
2019-03-31T00:40:04.538Z,74.23
2019-03-31T00:42:33.727Z,74.82
2019-03-31T00:45:02.916Z,75.08
2019-03-31T00:47:32.106Z,75.41
2019-03-31T00:50:01.316Z,75.13
2019-03-31T00:52:30.512Z,75.13
2019-03-31T00:54:59.696Z,75.95
2019-03-31T00:57:28.882Z,75.95
2019-03-31T00:59:58.074Z,76.58
2019-03-31T01:02:31.602Z,76.58
2019-03-31T01:05:01.042Z,76.67
2019-03-31T01:07:30.600Z,76.67
2019-03-31T01:09:59.971Z,77.31
2019-03-31T01:12:29.487Z,77.31
2019-03-31T01:14:58.661Z,77.21
2019-03-31T01:17:28.115Z,76.87
2019-03-31T01:19:58.957Z,77.37
2019-03-31T01:22:28.151Z,78.26
2019-03-31T01:24:57.340Z,78.26
2019-03-31T01:27:26.717Z,78.57
2019-03-31T01:29:55.976Z,78.85
2019-03-31T01:32:25.266Z,78.76
2019-03-31T01:34:54.519Z,78.76
2019-03-31T01:37:23.700Z,78.70
2019-03-31T01:39:53.467Z,78.34
2019-03-31T01:42:22.662Z,79.17
2019-03-31T01:44:51.866Z,79.17
2019-03-31T01:47:21.063Z,79.79
2019-03-31T01:49:50.317Z,80.66
2019-03-31T01:52:19.596Z,81.18
2019-03-31T01:54:48.802Z,81.04
2019-03-31T01:57:18.034Z,81.12
2019-03-31T01:59:47.224Z,81.55
2019-03-31T02:02:18.058Z,81.99
2019-03-31T02:04:47.252Z,82.17
2019-03-31T02:07:16.442Z,82.30
2019-03-31T02:09:45.636Z,83.29
2019-03-31T02:12:14.880Z,83.53
2019-03-31T02:14:44.095Z,83.98
2019-03-31T02:17:13.281Z,83.98
2019-03-31T02:19:42.498Z,84.52
2019-03-31T02:22:11.770Z,85.01
2019-03-31T02:24:40.907Z,85.55
2019-03-31T02:27:10.143Z,85.56
2019-03-31T02:29:39.339Z,85.56
2019-03-31T02:32:22.527Z,85.63
2019-03-31T02:34:39.358Z,85.63
2019-03-31T02:37:08.545Z,85.33
2019-03-31T02:39:39.253Z,85.08
2019-03-31T02:42:08.462Z,84.75
2019-03-31T02:44:42.011Z,85.02
2019-03-31T02:47:11.277Z,85.57
2019-03-31T02:49:40.467Z,86.29
2019-03-31T02:52:09.649Z,85.72
2019-03-31T02:54:38.846Z,86.02
2019-03-31T02:57:08.615Z,86.04
2019-03-31T02:59:38.362Z,85.48
2019-03-31T03:02:08.972Z,85.45
2019-03-31T03:04:41.005Z,86.21
2019-03-31T03:07:12.948Z,86.49
2019-03-31T03:09:48.310Z,86.65
2019-03-31T03:12:22.580Z,86.82
2019-03-31T03:14:54.432Z,87.26
2019-03-31T03:17:23.610Z,87.49
2019-03-31T03:19:52.814Z,87.24
2019-03-31T03:22:21.997Z,87.49
2019-03-31T03:24:51.254Z,87.66
2019-03-31T03:27:20.446Z,87.59
2019-03-31T03:29:49.624Z,86.74
2019-03-31T03:32:18.805Z,86.45
2019-03-31T03:34:48.003Z,86.00
2019-03-31T03:37:17.198Z,86.05
2019-03-31T03:39:46.393Z,86.18
2019-03-31T03:42:15.596Z,85.89
2019-03-31T03:44:44.772Z,85.48
2019-03-31T03:47:13.991Z,85.47
2019-03-31T03:49:43.173Z,85.40
2019-03-31T03:52:12.394Z,85.03
2019-03-31T03:54:41.612Z,85.34
2019-03-31T03:57:10.848Z,85.61
2019-03-31T03:59:40.096Z,84.98
2019-03-31T04:02:09.330Z,84.64
2019-03-31T04:04:38.464Z,84.52
2019-03-31T04:07:07.667Z,84.43
2019-03-31T04:09:36.820Z,84.72
2019-03-31T04:12:06.009Z,84.75
2019-03-31T04:14:35.198Z,85.20
2019-03-31T04:17:04.399Z,85.26
2019-03-31T04:19:33.573Z,85.51
2019-03-31T04:22:02.769Z,86.08
2019-03-31T04:24:33.599Z,85.98
2019-03-31T04:27:02.794Z,86.09
2019-03-31T04:29:31.972Z,85.97
2019-03-31T04:32:01.187Z,86.16
2019-03-31T04:34:30.383Z,86.56
2019-03-31T04:36:59.752Z,86.62
2019-03-31T04:39:28.951Z,86.48
2019-03-31T04:41:58.142Z,86.46
2019-03-31T04:44:27.349Z,86.54
2019-03-31T04:46:56.547Z,86.77
2019-03-31T04:49:25.756Z,87.09
2019-03-31T04:51:54.928Z,86.92
2019-03-31T04:54:24.118Z,86.80
2019-03-31T04:56:53.319Z,87.10
2019-03-31T04:59:22.502Z,86.71
2019-03-31T05:01:51.720Z,86.43
2019-03-31T05:04:20.913Z,86.68
2019-03-31T05:06:50.114Z,86.50
2019-03-31T05:09:19.624Z,86.43
2019-03-31T05:11:48.804Z,86.48
2019-03-31T05:14:18.016Z,86.95
2019-03-31T05:16:47.200Z,87.41
2019-03-31T05:19:16.387Z,87.43
2019-03-31T05:21:45.565Z,87.51
2019-03-31T05:24:14.754Z,87.27
2019-03-31T05:26:43.957Z,87.36
2019-03-31T05:29:13.137Z,87.92
2019-03-31T05:31:42.331Z,88.19
2019-03-31T05:34:18.849Z,87.92
2019-03-31T05:36:42.401Z,88.03
2019-03-31T05:39:11.573Z,88.40
2019-03-31T05:41:40.752Z,88.19
2019-03-31T05:44:09.955Z,87.88
2019-03-31T05:46:39.219Z,88.00
2019-03-31T05:49:08.390Z,88.32
2019-03-31T05:51:37.584Z,88.30
2019-03-31T05:54:06.784Z,88.14
2019-03-31T05:56:36.005Z,88.46
2019-03-31T05:59:05.259Z,88.55
2019-03-31T06:01:34.431Z,89.08
2019-03-31T06:04:03.611Z,89.16
2019-03-31T06:06:32.797Z,89.17
2019-03-31T06:09:02.002Z,89.42
2019-03-31T06:11:31.178Z,90.44
2019-03-31T06:14:00.383Z,91.16
2019-03-31T06:16:29.607Z,91.76
2019-03-31T06:18:58.803Z,92.55
2019-03-31T06:21:29.278Z,93.09
2019-03-31T06:23:58.699Z,93.46
2019-03-31T06:26:27.896Z,94.56
2019-03-31T06:28:57.097Z,95.15
2019-03-31T06:31:26.277Z,95.01
2019-03-31T06:33:55.471Z,95.59
2019-03-31T06:36:24.675Z,95.02
2019-03-31T06:38:53.894Z,94.55
2019-03-31T06:41:23.084Z,94.73
2019-03-31T06:43:52.263Z,94.52
2019-03-31T06:46:21.477Z,94.38
2019-03-31T06:48:50.666Z,94.59
2019-03-31T06:51:19.865Z,94.56
2019-03-31T06:53:49.034Z,94.85
2019-03-31T06:56:18.206Z,94.24
2019-03-31T06:58:47.397Z,94.18
2019-03-31T07:01:16.583Z,93.96
2019-03-31T07:03:45.758Z,93.74
2019-03-31T07:06:16.759Z,93.28
2019-03-31T07:08:45.873Z,92.64
2019-03-31T07:11:15.100Z,92.00
2019-03-31T07:13:44.289Z,91.84
2019-03-31T07:16:13.473Z,91.64
2019-03-31T07:18:42.918Z,91.01
2019-03-31T07:21:12.097Z,90.93
2019-03-31T07:23:41.316Z,91.16
2019-03-31T07:26:10.501Z,91.21
2019-03-31T07:28:39.682Z,90.54
2019-03-31T07:31:08.875Z,90.27
2019-03-31T07:33:38.061Z,90.28
2019-03-31T07:36:07.253Z,90.84
2019-03-31T07:38:39.132Z,90.98
2019-03-31T07:41:12.808Z,90.77
2019-03-31T07:43:38.202Z,90.36
2019-03-31T07:46:07.387Z,90.33
2019-03-31T07:48:36.581Z,89.86
2019-03-31T07:51:05.771Z,89.96
2019-03-31T07:53:34.942Z,88.95
2019-03-31T07:56:04.126Z,88.39
2019-03-31T07:58:33.302Z,88.18
2019-03-31T08:01:02.503Z,87.88
2019-03-31T08:03:31.674Z,87.70
2019-03-31T08:06:00.856Z,87.52
2019-03-31T08:08:30.139Z,87.12
2019-03-31T08:10:59.322Z,87.34
2019-03-31T08:13:28.447Z,86.79
2019-03-31T08:15:57.621Z,86.09
2019-03-31T08:18:26.800Z,85.78
2019-03-31T08:20:56.011Z,86.12
2019-03-31T08:23:25.203Z,85.66
2019-03-31T08:25:54.401Z,86.05
2019-03-31T08:28:25.030Z,85.87
2019-03-31T08:30:54.395Z,85.73
2019-03-31T08:33:23.580Z,86.09
2019-03-31T08:35:52.757Z,86.37
2019-03-31T08:38:24.392Z,85.08
2019-03-31T08:40:52.825Z,84.37
2019-03-31T08:43:22.014Z,84.35
2019-03-31T08:45:51.194Z,83.77
2019-03-31T08:48:20.413Z,83.67
2019-03-31T08:50:49.577Z,82.86
2019-03-31T08:53:18.767Z,82.50
2019-03-31T08:55:48.005Z,82.43
2019-03-31T08:58:17.180Z,82.97
2019-03-31T09:00:48.036Z,83.21
2019-03-31T09:03:17.239Z,83.22
2019-03-31T09:06:00.641Z,83.88
2019-03-31T09:08:17.299Z,83.89
2019-03-31T09:10:46.478Z,83.31
2019-03-31T09:13:15.664Z,83.02
2019-03-31T09:15:44.822Z,82.55
2019-03-31T09:18:14.007Z,82.82
2019-03-31T09:20:43.169Z,82.65
2019-03-31T09:23:12.414Z,81.99
2019-03-31T09:25:41.603Z,81.33
2019-03-31T09:28:10.799Z,80.65
2019-03-31T09:30:39.982Z,79.82
2019-03-31T09:33:09.177Z,78.66
2019-03-31T09:35:38.351Z,78.22
2019-03-31T09:38:07.533Z,76.56
2019-03-31T09:40:36.705Z,75.34
2019-03-31T09:43:05.898Z,74.39
2019-03-31T09:45:35.122Z,74.64
2019-03-31T09:48:04.425Z,73.44
2019-03-31T09:50:33.610Z,72.77
2019-03-31T09:53:02.793Z,71.57
2019-03-31T09:55:31.966Z,69.76
2019-03-31T09:58:01.175Z,70.73
2019-03-31T10:00:40.169Z,70.73
2019-03-31T10:03:09.441Z,70.51
2019-03-31T10:05:38.661Z,70.63
2019-03-31T10:08:07.963Z,70.49
2019-03-31T10:10:37.207Z,70.06
2019-03-31T10:13:06.409Z,69.97
2019-03-31T10:15:35.624Z,70.19
2019-03-31T10:18:04.889Z,69.67
2019-03-31T10:20:34.195Z,69.29
2019-03-31T10:23:03.458Z,68.85
2019-03-31T10:25:32.717Z,67.72
2019-03-31T10:28:01.899Z,69.09
2019-03-31T10:30:33.665Z,69.09
2019-03-31T10:33:02.930Z,68.61
2019-03-31T10:35:32.116Z,67.49
2019-03-31T10:38:01.469Z,67.89
2019-03-31T10:40:30.649Z,67.20
2019-03-31T10:42:59.897Z,67.19
2019-03-31T10:45:29.173Z,67.19
2019-03-31T10:47:58.362Z,67.26
2019-03-31T10:50:27.623Z,67.26
2019-03-31T10:52:56.807Z,67.35
2019-03-31T10:55:26.009Z,67.22
2019-03-31T10:57:55.328Z,67.65
2019-03-31T11:00:30.809Z,67.27
2019-03-31T11:03:03.265Z,67.01
2019-03-31T11:05:32.486Z,65.27
2019-03-31T11:08:01.686Z,64.85
2019-03-31T11:10:30.987Z,64.85
2019-03-31T11:13:00.173Z,65.87
2019-03-31T11:15:29.422Z,64.76
2019-03-31T11:17:58.617Z,64.56
2019-03-31T11:20:27.852Z,64.11
2019-03-31T11:23:01.380Z,64.47
2019-03-31T11:25:30.559Z,64.47
2019-03-31T11:27:59.744Z,63.99
2019-03-31T11:30:28.924Z,63.99
2019-03-31T11:32:58.102Z,64.12
2019-03-31T11:35:27.309Z,63.92
2019-03-31T11:37:56.519Z,63.92
2019-03-31T11:40:25.708Z,63.83
2019-03-31T11:42:54.897Z,63.44
2019-03-31T11:45:24.189Z,64.05
2019-03-31T11:47:53.375Z,64.05
2019-03-31T11:50:22.673Z,63.10
2019-03-31T11:52:51.865Z,62.38
2019-03-31T11:55:21.094Z,62.13
2019-03-31T11:57:50.270Z,61.74
2019-03-31T12:00:21.205Z,62.88
2019-03-31T12:02:50.381Z,63.23
2019-03-31T12:05:19.568Z,61.23
2019-03-31T12:07:48.813Z,61.23
2019-03-31T12:10:19.765Z,61.21
2019-03-31T12:12:48.931Z,60.86
2019-03-31T12:15:18.130Z,60.89
2019-03-31T12:17:47.316Z,61.38
2019-03-31T12:20:16.784Z,63.01
2019-03-31T12:22:45.934Z,63.01
2019-03-31T12:25:15.271Z,62.83
2019-03-31T12:27:44.472Z,62.83
2019-03-31T12:30:17.245Z,62.26
2019-03-31T12:32:46.439Z,62.14
2019-03-31T12:35:34.981Z,61.01
2019-03-31T12:38:04.283Z,61.01
2019-03-31T12:40:35.983Z,60.58
2019-03-31T12:43:05.544Z,60.82
2019-03-31T12:45:34.833Z,60.99
2019-03-31T12:48:04.126Z,60.99
2019-03-31T12:50:33.321Z,61.13
2019-03-31T12:53:02.582Z,60.09
2019-03-31T12:55:31.803Z,59.58
2019-03-31T12:58:01.021Z,59.44
2019-03-31T13:00:30.269Z,60.05
2019-03-31T13:03:01.146Z,59.30
2019-03-31T13:05:30.302Z,59.30
2019-03-31T13:07:59.491Z,59.45
2019-03-31T13:10:28.680Z,59.37
2019-03-31T13:12:57.870Z,59.37
2019-03-31T13:15:27.092Z,58.91
2019-03-31T13:17:56.270Z,59.18
2019-03-31T13:20:25.466Z,59.59
2019-03-31T13:22:55.286Z,59.31
2019-03-31T13:25:26.005Z,59.37
2019-03-31T13:27:55.185Z,58.65
2019-03-31T13:30:24.382Z,58.88
2019-03-31T13:32:53.664Z,59.24
2019-03-31T13:35:22.918Z,58.15
2019-03-31T13:37:52.131Z,57.89
2019-03-31T13:40:21.443Z,57.89
2019-03-31T13:42:50.732Z,58.32
2019-03-31T13:45:19.902Z,57.38
2019-03-31T13:47:49.144Z,57.38
2019-03-31T13:50:18.651Z,57.78
2019-03-31T13:52:47.848Z,57.56
2019-03-31T13:55:17.114Z,57.56
2019-03-31T13:57:47.736Z,57.73
2019-03-31T14:00:25.403Z,57.73
2019-03-31T14:02:51.165Z,58.20
2019-03-31T14:05:20.342Z,58.20
2019-03-31T14:07:49.580Z,57.37
2019-03-31T14:10:18.734Z,57.98
2019-03-31T14:12:47.911Z,58.07
2019-03-31T14:15:19.315Z,58.08
2019-03-31T14:17:47.984Z,57.13
2019-03-31T14:20:17.244Z,57.10
2019-03-31T14:22:46.414Z,57.10
2019-03-31T14:25:16.036Z,57.04
2019-03-31T14:27:45.298Z,56.75
2019-03-31T14:30:14.544Z,56.25
2019-03-31T14:32:43.912Z,56.25
2019-03-31T14:35:13.171Z,55.92
2019-03-31T14:37:42.432Z,55.47
2019-03-31T14:40:11.799Z,55.47
2019-03-31T14:42:40.999Z,55.97
2019-03-31T14:45:13.223Z,56.05
2019-03-31T14:47:42.403Z,56.05
2019-03-31T14:50:14.628Z,55.46
2019-03-31T14:52:43.801Z,55.46
2019-03-31T14:55:13.064Z,55.99
2019-03-31T14:57:42.260Z,55.62
2019-03-31T15:00:15.087Z,55.62
2019-03-31T15:02:42.664Z,55.90
2019-03-31T15:05:11.830Z,55.87
2019-03-31T15:07:41.015Z,56.02
2019-03-31T15:10:10.280Z,55.63
2019-03-31T15:12:39.463Z,55.95
2019-03-31T15:15:08.717Z,55.94
2019-03-31T15:17:37.895Z,55.94
2019-03-31T15:20:07.354Z,55.38
2019-03-31T15:22:36.586Z,55.54
2019-03-31T15:25:06.716Z,54.22
2019-03-31T15:27:35.914Z,54.22
2019-03-31T15:30:08.362Z,54.68
2019-03-31T15:32:37.573Z,54.68
2019-03-31T15:35:07.850Z,54.49
2019-03-31T15:37:37.048Z,54.32
2019-03-31T15:40:07.926Z,53.93
2019-03-31T15:42:37.118Z,53.93
2019-03-31T15:45:06.726Z,54.80
2019-03-31T15:47:35.931Z,54.51
2019-03-31T15:50:06.356Z,54.51
2019-03-31T15:52:35.524Z,54.81
2019-03-31T15:55:06.632Z,55.09
2019-03-31T15:57:35.888Z,54.11
2019-03-31T16:00:07.407Z,54.36
2019-03-31T16:02:36.593Z,53.51
2019-03-31T16:05:08.306Z,53.47
2019-03-31T16:07:37.551Z,53.47
2019-03-31T16:10:08.878Z,53.47
2019-03-31T16:12:38.086Z,53.21
2019-03-31T16:15:07.979Z,52.93
2019-03-31T16:17:37.176Z,52.87
2019-03-31T16:20:06.813Z,52.87
2019-03-31T16:22:35.978Z,53.44
2019-03-31T16:25:11.161Z,53.41
2019-03-31T16:27:40.335Z,53.44
2019-03-31T16:30:09.684Z,52.72
2019-03-31T16:32:38.884Z,52.72
2019-03-31T16:35:08.152Z,52.60
2019-03-31T16:37:37.334Z,53.08
2019-03-31T16:40:07.385Z,52.11
2019-03-31T16:42:36.582Z,52.49
2019-03-31T16:45:07.712Z,52.64
2019-03-31T16:47:37.172Z,52.64
2019-03-31T16:50:07.200Z,51.77
2019-03-31T16:52:36.409Z,51.82
2019-03-31T16:55:06.363Z,51.82
2019-03-31T16:57:35.598Z,51.59
2019-03-31T17:00:06.608Z,51.59
2019-03-31T17:02:35.805Z,51.77
2019-03-31T17:05:21.091Z,51.96
2019-03-31T17:07:38.300Z,51.96
2019-03-31T17:10:09.453Z,52.43
2019-03-31T17:12:38.627Z,52.30
2019-03-31T17:15:08.698Z,52.30
2019-03-31T17:17:37.879Z,52.19
2019-03-31T17:20:08.115Z,52.88
2019-03-31T17:22:37.305Z,52.88
2019-03-31T17:25:06.812Z,53.15
2019-03-31T17:27:36.004Z,53.15
2019-03-31T17:30:06.333Z,53.31
2019-03-31T17:32:35.503Z,53.30
2019-03-31T17:35:05.047Z,53.85
2019-03-31T17:37:34.251Z,54.91
2019-03-31T17:40:06.403Z,54.91
2019-03-31T17:42:35.954Z,54.96
2019-03-31T17:45:08.406Z,55.29
2019-03-31T17:47:37.770Z,55.81
2019-03-31T17:50:07.222Z,56.08
2019-03-31T17:52:36.419Z,56.39
2019-03-31T17:55:06.215Z,56.55
2019-03-31T17:57:35.396Z,57.11
2019-03-31T18:00:08.328Z,57.06
2019-03-31T18:02:37.500Z,57.36
2019-03-31T18:05:08.253Z,57.79
2019-03-31T18:07:37.431Z,57.91
2019-03-31T18:10:20.138Z,58.21
2019-03-31T18:12:38.728Z,59.09
2019-03-31T18:15:07.971Z,59.70
2019-03-31T18:17:37.162Z,60.02
2019-03-31T18:20:06.870Z,60.39
2019-03-31T18:22:36.050Z,60.72
2019-03-31T18:25:07.471Z,60.98
2019-03-31T18:27:36.658Z,61.33
2019-03-31T18:30:06.790Z,61.69
2019-03-31T18:32:35.994Z,61.96
2019-03-31T18:35:06.974Z,62.30
2019-03-31T18:37:36.154Z,62.46
2019-03-31T18:40:07.251Z,62.52
2019-03-31T18:42:36.511Z,62.44
2019-03-31T18:45:07.136Z,62.42
2019-03-31T18:47:36.268Z,62.32
2019-03-31T18:50:06.795Z,62.40
2019-03-31T18:52:36.074Z,62.15
2019-03-31T18:55:07.861Z,62.04
2019-03-31T18:57:38.695Z,61.90
2019-03-31T19:00:27.374Z,61.79
2019-03-31T19:02:58.187Z,61.63
2019-03-31T19:05:31.959Z,62.04
2019-03-31T19:08:14.788Z,62.11
2019-03-31T19:11:00.596Z,62.18
2019-03-31T19:13:37.289Z,61.85
2019-03-31T19:16:16.825Z,61.99
2019-03-31T19:18:50.575Z,61.81
2019-03-31T19:21:21.761Z,61.08
2019-03-31T19:23:55.408Z,61.22
2019-03-31T19:26:48.663Z,61.14
2019-03-31T19:29:31.418Z,61.00
2019-03-31T19:32:02.252Z,60.67
2019-03-31T19:34:47.888Z,60.80
2019-03-31T19:37:21.726Z,60.72
2019-03-31T19:39:55.356Z,60.57
2019-03-31T19:42:38.155Z,61.00
2019-03-31T19:45:20.999Z,61.20
2019-03-31T19:48:08.182Z,60.86
2019-03-31T19:50:39.069Z,61.01
2019-03-31T19:53:15.981Z,60.90
2019-03-31T19:56:07.692Z,60.93
2019-03-31T19:58:35.299Z,61.15
2019-03-31T20:01:11.639Z,60.91
2019-03-31T20:03:42.493Z,60.55
2019-03-31T20:06:15.960Z,60.05
2019-03-31T20:08:55.739Z,60.25
2019-03-31T20:11:26.578Z,59.86
2019-03-31T20:14:06.313Z,59.43
2019-03-31T20:16:49.313Z,59.61
2019-03-31T20:19:22.677Z,59.20
2019-03-31T20:22:02.426Z,59.06
2019-03-31T20:24:33.236Z,59.15
2019-03-31T20:27:06.786Z,59.63
2019-03-31T20:29:37.602Z,59.37
2019-03-31T20:32:08.435Z,59.67
2019-03-31T20:34:42.219Z,59.84
2019-03-31T20:37:25.197Z,60.13
2019-03-31T20:40:01.589Z,60.40
2019-03-31T20:42:38.292Z,60.55
2019-03-31T20:45:08.326Z,60.71
2019-03-31T20:47:37.535Z,61.16
2019-03-31T20:50:07.290Z,61.46
2019-03-31T20:52:36.468Z,61.33
2019-03-31T20:55:16.065Z,61.31
2019-03-31T20:57:37.180Z,61.43
2019-03-31T21:00:08.102Z,61.33
2019-03-31T21:02:37.324Z,61.46
2019-03-31T21:05:06.632Z,61.47
2019-03-31T21:07:35.816Z,61.56
2019-03-31T21:10:06.485Z,61.61
2019-03-31T21:12:35.659Z,61.61
2019-03-31T21:15:06.777Z,61.83
2019-03-31T21:17:35.986Z,62.02
2019-03-31T21:20:06.349Z,61.93
2019-03-31T21:22:35.510Z,62.09
2019-03-31T21:25:06.156Z,62.36
2019-03-31T21:27:35.335Z,62.53
2019-03-31T21:30:06.461Z,62.74
2019-03-31T21:32:35.652Z,62.87
2019-03-31T21:35:06.489Z,63.28
2019-03-31T21:37:35.750Z,63.77
2019-03-31T21:40:07.008Z,63.63
2019-03-31T21:42:36.234Z,63.21
2019-03-31T21:45:06.789Z,63.53
2019-03-31T21:47:35.968Z,63.50
2019-03-31T21:50:06.787Z,63.75
2019-03-31T21:52:36.039Z,63.50
2019-03-31T21:55:06.137Z,63.47
2019-03-31T21:57:35.337Z,63.67
2019-03-31T22:00:12.162Z,63.48
2019-03-31T22:02:41.468Z,63.71
2019-03-31T22:05:10.909Z,63.58
2019-03-31T22:07:40.069Z,63.71
2019-03-31T22:10:09.774Z,63.03
2019-03-31T22:12:38.947Z,62.40
2019-03-31T22:15:08.454Z,61.89
2019-03-31T22:17:37.632Z,61.93
2019-03-31T22:20:08.052Z,61.77
2019-03-31T22:22:37.219Z,61.32
2019-03-31T22:25:07.190Z,61.75
2019-03-31T22:27:36.578Z,61.67
2019-03-31T22:30:07.354Z,61.49
2019-03-31T22:32:36.560Z,61.28
2019-03-31T22:35:06.210Z,61.25
2019-03-31T22:37:35.388Z,61.81
2019-03-31T22:40:06.627Z,61.92
2019-03-31T22:42:35.815Z,62.27
2019-03-31T22:45:06.635Z,61.46
2019-03-31T22:47:35.838Z,61.73
2019-03-31T22:50:06.157Z,61.95
2019-03-31T22:52:35.341Z,62.13
2019-03-31T22:55:06.294Z,62.42
2019-03-31T22:57:35.480Z,62.39
2019-03-31T23:00:05.816Z,62.71
2019-03-31T23:02:35.001Z,62.52
2019-03-31T23:05:04.817Z,62.42
2019-03-31T23:07:34.015Z,62.36
2019-03-31T23:10:03.261Z,62.73
2019-03-31T23:12:32.476Z,62.72
2019-03-31T23:15:01.697Z,62.91
2019-03-31T23:17:30.902Z,62.89
2019-03-31T23:20:00.115Z,62.37
2019-03-31T23:22:29.284Z,62.75
2019-03-31T23:24:58.476Z,62.61
2019-03-31T23:27:27.650Z,62.80
2019-03-31T23:29:56.834Z,62.29
2019-03-31T23:32:26.033Z,62.77
2019-03-31T23:34:55.229Z,62.40
2019-03-31T23:37:24.422Z,62.59
2019-03-31T23:39:53.623Z,62.08
2019-03-31T23:42:22.867Z,62.15
2019-03-31T23:44:52.084Z,62.11
2019-03-31T23:47:21.163Z,62.09
2019-03-31T23:49:50.585Z,62.36
2019-03-31T23:52:19.765Z,61.91
2019-03-31T23:54:48.973Z,62.06
2019-03-31T23:57:18.182Z,61.65
2019-03-31T23:59:47.361Z,62.00
